sensor_id;sensor_type;location;lat;lon;timestamp;temperature;humidity
53534;DHT22;39421;53.204;6.568;2022-09-13T00:01:28;19.30;99.90
53534;DHT22;39421;53.204;6.568;2022-09-13T00:03:54;19.20;99.90
53534;DHT22;39421;53.204;6.568;2022-09-13T00:06:20;19.20;99.90
53534;DHT22;39421;53.204;6.568;2022-09-13T00:08:46;19.20;99.90
53534;DHT22;39421;53.204;6.568;2022-09-13T00:11:21;19.10;99.90
53534;DHT22;39421;53.204;6.568;2022-09-13T00:13:47;19.20;99.90
53534;DHT22;39421;53.204;6.568;2022-09-13T00:16:16;19.20;99.90
53534;DHT22;39421;53.204;6.568;2022-09-13T00:18:42;19.20;99.90
53534;DHT22;39421;53.204;6.568;2022-09-13T00:21:13;19.10;99.90
53534;DHT22;39421;53.204;6.568;2022-09-13T00:23:39;19.10;99.90
53534;DHT22;39421;53.204;6.568;2022-09-13T00:26:10;19.10;99.90
53534;DHT22;39421;53.204;6.568;2022-09-13T00:28:37;19.00;99.90
53534;DHT22;39421;53.204;6.568;2022-09-13T00:31:05;19.00;99.90
53534;DHT22;39421;53.204;6.568;2022-09-13T00:33:31;18.90;99.90
53534;DHT22;39421;53.204;6.568;2022-09-13T00:35:57;18.90;99.90
53534;DHT22;39421;53.204;6.568;2022-09-13T00:38:23;18.90;99.90
53534;DHT22;39421;53.204;6.568;2022-09-13T00:40:49;18.90;99.90
53534;DHT22;39421;53.204;6.568;2022-09-13T00:43:18;18.90;99.90
53534;DHT22;39421;53.204;6.568;2022-09-13T00:45:46;18.90;99.90
53534;DHT22;39421;53.204;6.568;2022-09-13T00:48:20;18.80;99.90
53534;DHT22;39421;53.204;6.568;2022-09-13T00:50:51;18.80;99.90
53534;DHT22;39421;53.204;6.568;2022-09-13T00:53:25;18.80;99.90
53534;DHT22;39421;53.204;6.568;2022-09-13T00:56:02;18.90;99.90
53534;DHT22;39421;53.204;6.568;2022-09-13T00:58:38;18.80;99.90
53534;DHT22;39421;53.204;6.568;2022-09-13T01:01:09;18.90;99.90
53534;DHT22;39421;53.204;6.568;2022-09-13T01:03:36;18.80;99.90
53534;DHT22;39421;53.204;6.568;2022-09-13T01:06:17;18.70;99.90
53534;DHT22;39421;53.204;6.568;2022-09-13T01:08:49;18.70;99.90
53534;DHT22;39421;53.204;6.568;2022-09-13T01:11:35;18.60;99.90
53534;DHT22;39421;53.204;6.568;2022-09-13T01:14:02;18.50;99.90
53534;DHT22;39421;53.204;6.568;2022-09-13T01:16:29;18.50;99.90
53534;DHT22;39421;53.204;6.568;2022-09-13T01:18:55;18.50;99.90
53534;DHT22;39421;53.204;6.568;2022-09-13T01:24:24;18.50;99.90
53534;DHT22;39421;53.204;6.568;2022-09-13T01:32:33;18.70;99.90
53534;DHT22;39421;53.204;6.568;2022-09-13T01:35:19;18.70;99.90
53534;DHT22;39421;53.204;6.568;2022-09-13T01:43:56;18.70;99.90
53534;DHT22;39421;53.204;6.568;2022-09-13T01:52:00;18.70;99.90
53534;DHT22;39421;53.204;6.568;2022-09-13T01:54:54;18.80;99.90
53534;DHT22;39421;53.204;6.568;2022-09-13T02:00:07;18.90;99.90
53534;DHT22;39421;53.204;6.568;2022-09-13T02:02:57;18.90;99.90
53534;DHT22;39421;53.204;6.568;2022-09-13T02:05:43;18.90;99.90
53534;DHT22;39421;53.204;6.568;2022-09-13T02:08:41;18.90;99.90
53534;DHT22;39421;53.204;6.568;2022-09-13T02:11:13;19.00;99.90
53534;DHT22;39421;53.204;6.568;2022-09-13T02:13:45;19.10;99.90
53534;DHT22;39421;53.204;6.568;2022-09-13T02:16:30;19.10;99.90
53534;DHT22;39421;53.204;6.568;2022-09-13T02:19:00;19.20;99.90
53534;DHT22;39421;53.204;6.568;2022-09-13T02:21:31;19.20;99.90
53534;DHT22;39421;53.204;6.568;2022-09-13T02:24:04;19.20;99.90
53534;DHT22;39421;53.204;6.568;2022-09-13T02:26:34;19.30;99.90
53534;DHT22;39421;53.204;6.568;2022-09-13T02:29:09;19.30;99.90
53534;DHT22;39421;53.204;6.568;2022-09-13T02:32:13;19.30;99.90
53534;DHT22;39421;53.204;6.568;2022-09-13T02:34:54;19.20;99.90
53534;DHT22;39421;53.204;6.568;2022-09-13T02:37:22;19.20;99.90
53534;DHT22;39421;53.204;6.568;2022-09-13T02:39:53;19.20;99.90
53534;DHT22;39421;53.204;6.568;2022-09-13T02:42:32;19.20;99.90
53534;DHT22;39421;53.204;6.568;2022-09-13T02:45:02;19.10;99.90
53534;DHT22;39421;53.204;6.568;2022-09-13T02:55:37;19.20;99.90
53534;DHT22;39421;53.204;6.568;2022-09-13T03:00:45;19.30;99.90
53534;DHT22;39421;53.204;6.568;2022-09-13T03:03:13;19.30;99.90
53534;DHT22;39421;53.204;6.568;2022-09-13T03:05:40;19.30;99.90
53534;DHT22;39421;53.204;6.568;2022-09-13T03:08:08;19.40;99.90
53534;DHT22;39421;53.204;6.568;2022-09-13T03:19:28;19.40;99.90
53534;DHT22;39421;53.204;6.568;2022-09-13T03:22:22;19.40;99.90
53534;DHT22;39421;53.204;6.568;2022-09-13T03:25:18;19.40;99.90
53534;DHT22;39421;53.204;6.568;2022-09-13T03:30:52;19.40;99.90
53534;DHT22;39421;53.204;6.568;2022-09-13T03:34:03;19.50;99.90
53534;DHT22;39421;53.204;6.568;2022-09-13T03:36:18;19.40;99.90
53534;DHT22;39421;53.204;6.568;2022-09-13T03:41:42;19.50;99.90
53534;DHT22;39421;53.204;6.568;2022-09-13T03:44:11;19.50;99.90
53534;DHT22;39421;53.204;6.568;2022-09-13T03:46:44;19.50;99.90
53534;DHT22;39421;53.204;6.568;2022-09-13T03:49:16;19.60;99.90
53534;DHT22;39421;53.204;6.568;2022-09-13T03:51:45;19.50;99.90
53534;DHT22;39421;53.204;6.568;2022-09-13T03:54:33;19.50;99.90
53534;DHT22;39421;53.204;6.568;2022-09-13T03:57:12;19.50;99.90
53534;DHT22;39421;53.204;6.568;2022-09-13T03:59:42;19.50;99.90
53534;DHT22;39421;53.204;6.568;2022-09-13T04:02:10;19.50;99.90
53534;DHT22;39421;53.204;6.568;2022-09-13T04:04:38;19.50;99.90
53534;DHT22;39421;53.204;6.568;2022-09-13T04:07:03;19.50;99.90
53534;DHT22;39421;53.204;6.568;2022-09-13T04:09:32;19.50;99.90
53534;DHT22;39421;53.204;6.568;2022-09-13T04:11:58;19.50;99.90
53534;DHT22;39421;53.204;6.568;2022-09-13T04:14:24;19.40;99.90
53534;DHT22;39421;53.204;6.568;2022-09-13T04:16:55;19.40;99.90
53534;DHT22;39421;53.204;6.568;2022-09-13T04:19:22;19.40;99.90
53534;DHT22;39421;53.204;6.568;2022-09-13T04:21:49;19.40;99.90
53534;DHT22;39421;53.204;6.568;2022-09-13T04:24:16;19.40;99.90
53534;DHT22;39421;53.204;6.568;2022-09-13T04:26:42;19.40;99.90
53534;DHT22;39421;53.204;6.568;2022-09-13T04:29:08;19.40;99.90
53534;DHT22;39421;53.204;6.568;2022-09-13T04:31:33;19.40;99.90
53534;DHT22;39421;53.204;6.568;2022-09-13T04:33:59;19.30;99.90
53534;DHT22;39421;53.204;6.568;2022-09-13T04:36:25;19.30;99.90
53534;DHT22;39421;53.204;6.568;2022-09-13T04:38:51;19.20;99.90
53534;DHT22;39421;53.204;6.568;2022-09-13T04:41:16;19.10;99.90
53534;DHT22;39421;53.204;6.568;2022-09-13T04:43:42;19.00;99.90
53534;DHT22;39421;53.204;6.568;2022-09-13T04:46:08;19.00;99.90
53534;DHT22;39421;53.204;6.568;2022-09-13T04:48:34;19.00;99.90
53534;DHT22;39421;53.204;6.568;2022-09-13T04:51:04;19.00;99.90
53534;DHT22;39421;53.204;6.568;2022-09-13T04:53:30;19.00;99.90
53534;DHT22;39421;53.204;6.568;2022-09-13T04:56:03;19.10;99.90
53534;DHT22;39421;53.204;6.568;2022-09-13T04:58:29;19.10;99.90
53534;DHT22;39421;53.204;6.568;2022-09-13T05:01:03;19.10;99.90
53534;DHT22;39421;53.204;6.568;2022-09-13T05:03:30;19.10;99.90
53534;DHT22;39421;53.204;6.568;2022-09-13T05:06:04;19.20;99.90
53534;DHT22;39421;53.204;6.568;2022-09-13T05:08:30;19.20;99.90
53534;DHT22;39421;53.204;6.568;2022-09-13T05:10:56;19.20;99.90
53534;DHT22;39421;53.204;6.568;2022-09-13T05:13:21;19.20;99.90
53534;DHT22;39421;53.204;6.568;2022-09-13T05:15:47;19.20;99.90
53534;DHT22;39421;53.204;6.568;2022-09-13T05:18:13;19.30;99.90
53534;DHT22;39421;53.204;6.568;2022-09-13T05:20:38;19.30;99.90
53534;DHT22;39421;53.204;6.568;2022-09-13T05:23:04;19.30;99.90
53534;DHT22;39421;53.204;6.568;2022-09-13T05:25:30;19.30;99.90
53534;DHT22;39421;53.204;6.568;2022-09-13T05:27:55;19.30;99.90
53534;DHT22;39421;53.204;6.568;2022-09-13T05:30:21;19.40;99.90
53534;DHT22;39421;53.204;6.568;2022-09-13T05:32:47;19.40;99.90
53534;DHT22;39421;53.204;6.568;2022-09-13T05:35:12;19.40;99.90
53534;DHT22;39421;53.204;6.568;2022-09-13T05:37:38;19.30;99.90
53534;DHT22;39421;53.204;6.568;2022-09-13T05:40:04;19.30;99.90
53534;DHT22;39421;53.204;6.568;2022-09-13T05:42:30;19.30;99.90
53534;DHT22;39421;53.204;6.568;2022-09-13T05:44:56;19.30;99.90
53534;DHT22;39421;53.204;6.568;2022-09-13T05:47:22;19.30;99.90
53534;DHT22;39421;53.204;6.568;2022-09-13T05:49:48;19.20;99.90
53534;DHT22;39421;53.204;6.568;2022-09-13T05:52:13;19.20;99.90
53534;DHT22;39421;53.204;6.568;2022-09-13T05:54:39;19.30;99.90
53534;DHT22;39421;53.204;6.568;2022-09-13T05:57:05;19.30;99.90
53534;DHT22;39421;53.204;6.568;2022-09-13T05:59:30;19.40;99.90
53534;DHT22;39421;53.204;6.568;2022-09-13T06:01:57;19.40;99.90
53534;DHT22;39421;53.204;6.568;2022-09-13T06:04:23;19.40;99.90
53534;DHT22;39421;53.204;6.568;2022-09-13T06:06:48;19.50;99.90
53534;DHT22;39421;53.204;6.568;2022-09-13T06:09:14;19.60;99.90
53534;DHT22;39421;53.204;6.568;2022-09-13T06:11:40;19.60;99.90
53534;DHT22;39421;53.204;6.568;2022-09-13T06:14:06;19.70;99.90
53534;DHT22;39421;53.204;6.568;2022-09-13T06:16:32;19.60;99.90
53534;DHT22;39421;53.204;6.568;2022-09-13T06:18:58;19.60;99.90
53534;DHT22;39421;53.204;6.568;2022-09-13T06:21:24;19.60;99.90
53534;DHT22;39421;53.204;6.568;2022-09-13T06:23:51;19.60;99.90
53534;DHT22;39421;53.204;6.568;2022-09-13T06:26:20;19.60;99.90
53534;DHT22;39421;53.204;6.568;2022-09-13T06:28:47;19.60;99.90
53534;DHT22;39421;53.204;6.568;2022-09-13T06:31:15;19.70;99.90
53534;DHT22;39421;53.204;6.568;2022-09-13T06:33:42;19.70;99.90
53534;DHT22;39421;53.204;6.568;2022-09-13T06:36:13;19.70;99.90
53534;DHT22;39421;53.204;6.568;2022-09-13T06:38:39;19.80;99.90
53534;DHT22;39421;53.204;6.568;2022-09-13T06:43:33;19.90;99.90
53534;DHT22;39421;53.204;6.568;2022-09-13T06:46:03;20.00;99.90
53534;DHT22;39421;53.204;6.568;2022-09-13T06:48:38;20.00;99.90
53534;DHT22;39421;53.204;6.568;2022-09-13T06:51:10;20.10;99.90
53534;DHT22;39421;53.204;6.568;2022-09-13T06:53:36;20.20;99.90
53534;DHT22;39421;53.204;6.568;2022-09-13T06:58:32;20.40;99.90
53534;DHT22;39421;53.204;6.568;2022-09-13T07:01:33;20.50;99.90
53534;DHT22;39421;53.204;6.568;2022-09-13T07:04:05;20.60;99.90
53534;DHT22;39421;53.204;6.568;2022-09-13T07:06:36;20.50;99.90
53534;DHT22;39421;53.204;6.568;2022-09-13T07:09:05;20.70;99.90
53534;DHT22;39421;53.204;6.568;2022-09-13T07:11:33;20.80;99.90
53534;DHT22;39421;53.204;6.568;2022-09-13T07:13:59;21.00;99.90
53534;DHT22;39421;53.204;6.568;2022-09-13T07:16:28;21.10;99.90
53534;DHT22;39421;53.204;6.568;2022-09-13T07:19:00;21.10;99.90
53534;DHT22;39421;53.204;6.568;2022-09-13T07:21:27;21.20;99.90
53534;DHT22;39421;53.204;6.568;2022-09-13T07:23:53;21.20;99.90
53534;DHT22;39421;53.204;6.568;2022-09-13T07:26:20;21.10;99.90
53534;DHT22;39421;53.204;6.568;2022-09-13T07:28:47;21.10;99.90
53534;DHT22;39421;53.204;6.568;2022-09-13T07:31:18;21.10;99.90
53534;DHT22;39421;53.204;6.568;2022-09-13T07:33:45;21.00;99.90
53534;DHT22;39421;53.204;6.568;2022-09-13T07:36:12;21.00;99.90
53534;DHT22;39421;53.204;6.568;2022-09-13T07:38:40;21.00;99.90
53534;DHT22;39421;53.204;6.568;2022-09-13T07:41:10;20.90;99.90
53534;DHT22;39421;53.204;6.568;2022-09-13T07:43:36;21.20;99.90
53534;DHT22;39421;53.204;6.568;2022-09-13T07:46:11;21.40;99.90
53534;DHT22;39421;53.204;6.568;2022-09-13T07:48:39;21.70;99.90
53534;DHT22;39421;53.204;6.568;2022-09-13T07:51:16;21.90;99.90
53534;DHT22;39421;53.204;6.568;2022-09-13T07:53:44;22.10;99.90
53534;DHT22;39421;53.204;6.568;2022-09-13T07:56:20;22.30;99.90
53534;DHT22;39421;53.204;6.568;2022-09-13T07:58:49;22.50;99.90
53534;DHT22;39421;53.204;6.568;2022-09-13T08:01:21;22.60;99.90
53534;DHT22;39421;53.204;6.568;2022-09-13T08:04:02;22.70;99.90
53534;DHT22;39421;53.204;6.568;2022-09-13T08:06:30;22.90;99.90
53534;DHT22;39421;53.204;6.568;2022-09-13T08:08:56;22.90;99.90
53534;DHT22;39421;53.204;6.568;2022-09-13T08:11:27;23.00;99.90
53534;DHT22;39421;53.204;6.568;2022-09-13T08:13:53;23.10;99.90
53534;DHT22;39421;53.204;6.568;2022-09-13T08:16:21;23.10;99.90
53534;DHT22;39421;53.204;6.568;2022-09-13T08:18:50;23.10;99.90
53534;DHT22;39421;53.204;6.568;2022-09-13T08:21:16;23.10;99.90
53534;DHT22;39421;53.204;6.568;2022-09-13T08:23:42;23.30;99.90
53534;DHT22;39421;53.204;6.568;2022-09-13T08:26:09;23.40;99.90
53534;DHT22;39421;53.204;6.568;2022-09-13T08:28:39;23.50;99.90
53534;DHT22;39421;53.204;6.568;2022-09-13T08:31:11;23.60;99.90
53534;DHT22;39421;53.204;6.568;2022-09-13T08:33:38;23.80;99.90
53534;DHT22;39421;53.204;6.568;2022-09-13T08:36:04;23.90;99.90
53534;DHT22;39421;53.204;6.568;2022-09-13T08:38:31;24.00;99.90
53534;DHT22;39421;53.204;6.568;2022-09-13T08:40:59;24.10;99.90
53534;DHT22;39421;53.204;6.568;2022-09-13T08:43:44;24.10;99.90
53534;DHT22;39421;53.204;6.568;2022-09-13T08:46:23;24.00;99.90
53534;DHT22;39421;53.204;6.568;2022-09-13T08:48:54;23.90;99.90
53534;DHT22;39421;53.204;6.568;2022-09-13T08:53:56;24.00;99.90
53534;DHT22;39421;53.204;6.568;2022-09-13T08:56:28;24.20;99.90
53534;DHT22;39421;53.204;6.568;2022-09-13T08:59:32;24.30;99.90
53534;DHT22;39421;53.204;6.568;2022-09-13T09:02:22;24.60;99.90
53534;DHT22;39421;53.204;6.568;2022-09-13T09:05:14;24.60;99.90
53534;DHT22;39421;53.204;6.568;2022-09-13T09:08:10;24.60;99.90
53534;DHT22;39421;53.204;6.568;2022-09-13T09:10:45;24.50;99.90
53534;DHT22;39421;53.204;6.568;2022-09-13T09:13:30;24.50;99.50
53534;DHT22;39421;53.204;6.568;2022-09-13T09:16:05;24.80;99.40
53534;DHT22;39421;53.204;6.568;2022-09-13T09:18:35;25.00;99.00
53534;DHT22;39421;53.204;6.568;2022-09-13T09:21:02;24.90;98.70
53534;DHT22;39421;53.204;6.568;2022-09-13T09:23:45;25.00;99.00
53534;DHT22;39421;53.204;6.568;2022-09-13T09:26:17;25.20;98.70
53534;DHT22;39421;53.204;6.568;2022-09-13T09:29:13;25.20;98.10
53534;DHT22;39421;53.204;6.568;2022-09-13T09:39:37;25.20;97.90
53534;DHT22;39421;53.204;6.568;2022-09-13T09:42:14;25.30;97.40
53534;DHT22;39421;53.204;6.568;2022-09-13T09:44:44;25.30;97.50
53534;DHT22;39421;53.204;6.568;2022-09-13T09:47:25;25.10;97.40
53534;DHT22;39421;53.204;6.568;2022-09-13T09:50:01;25.10;97.80
53534;DHT22;39421;53.204;6.568;2022-09-13T09:55:39;25.20;97.20
53534;DHT22;39421;53.204;6.568;2022-09-13T09:58:06;25.00;97.00
53534;DHT22;39421;53.204;6.568;2022-09-13T10:00:35;25.40;97.00
53534;DHT22;39421;53.204;6.568;2022-09-13T10:03:06;25.70;96.60
53534;DHT22;39421;53.204;6.568;2022-09-13T10:05:33;27.00;96.00
53534;DHT22;39421;53.204;6.568;2022-09-13T10:08:04;26.70;95.80
53534;DHT22;39421;53.204;6.568;2022-09-13T10:10:50;26.20;96.00
53534;DHT22;39421;53.204;6.568;2022-09-13T10:13:20;25.50;96.50
53534;DHT22;39421;53.204;6.568;2022-09-13T10:18:23;24.60;96.90
53534;DHT22;39421;53.204;6.568;2022-09-13T10:21:03;24.40;97.70
53534;DHT22;39421;53.204;6.568;2022-09-13T10:23:31;24.60;97.70
53534;DHT22;39421;53.204;6.568;2022-09-13T10:26:13;24.80;97.70
53534;DHT22;39421;53.204;6.568;2022-09-13T10:29:07;24.90;96.80
53534;DHT22;39421;53.204;6.568;2022-09-13T10:31:42;25.20;96.80
53534;DHT22;39421;53.204;6.568;2022-09-13T10:36:57;25.50;96.20
53534;DHT22;39421;53.204;6.568;2022-09-13T10:39:25;25.30;96.00
53534;DHT22;39421;53.204;6.568;2022-09-13T10:41:54;25.30;96.10
53534;DHT22;39421;53.204;6.568;2022-09-13T10:44:44;25.20;95.80
53534;DHT22;39421;53.204;6.568;2022-09-13T10:47:31;25.30;95.60
53534;DHT22;39421;53.204;6.568;2022-09-13T10:50:20;25.50;95.60
53534;DHT22;39421;53.204;6.568;2022-09-13T10:52:49;25.80;95.10
53534;DHT22;39421;53.204;6.568;2022-09-13T10:57:48;25.90;94.20
53534;DHT22;39421;53.204;6.568;2022-09-13T11:00:22;25.70;94.20
53534;DHT22;39421;53.204;6.568;2022-09-13T11:17:20;25.80;92.30
53534;DHT22;39421;53.204;6.568;2022-09-13T11:19:50;25.80;92.10
53534;DHT22;39421;53.204;6.568;2022-09-13T11:22:26;26.10;92.40
53534;DHT22;39421;53.204;6.568;2022-09-13T11:50:41;27.10;92.10
53534;DHT22;39421;53.204;6.568;2022-09-13T11:53:55;27.10;92.20
53534;DHT22;39421;53.204;6.568;2022-09-13T11:56:32;26.90;92.00
53534;DHT22;39421;53.204;6.568;2022-09-13T12:02:04;26.90;92.10
53534;DHT22;39421;53.204;6.568;2022-09-13T12:04:51;27.10;92.10
53534;DHT22;39421;53.204;6.568;2022-09-13T12:10:42;27.30;92.00
53534;DHT22;39421;53.204;6.568;2022-09-13T12:13:20;27.30;91.60
53534;DHT22;39421;53.204;6.568;2022-09-13T12:15:50;27.00;91.10
53534;DHT22;39421;53.204;6.568;2022-09-13T12:18:19;26.80;91.30
53534;DHT22;39421;53.204;6.568;2022-09-13T12:20:59;26.80;91.50
53534;DHT22;39421;53.204;6.568;2022-09-13T12:23:35;26.70;91.30
53534;DHT22;39421;53.204;6.568;2022-09-13T12:26:14;26.70;91.90
53534;DHT22;39421;53.204;6.568;2022-09-13T12:28:45;26.70;91.80
53534;DHT22;39421;53.204;6.568;2022-09-13T12:31:19;26.60;91.70
53534;DHT22;39421;53.204;6.568;2022-09-13T12:33:46;26.30;92.10
53534;DHT22;39421;53.204;6.568;2022-09-13T12:45:07;26.30;92.00
53534;DHT22;39421;53.204;6.568;2022-09-13T13:01:50;26.00;91.90
53534;DHT22;39421;53.204;6.568;2022-09-13T13:04:17;26.10;91.60
53534;DHT22;39421;53.204;6.568;2022-09-13T13:12:01;26.20;91.70
53534;DHT22;39421;53.204;6.568;2022-09-13T13:14:48;26.10;91.90
53534;DHT22;39421;53.204;6.568;2022-09-13T13:23:34;26.00;91.20
53534;DHT22;39421;53.204;6.568;2022-09-13T13:34:29;25.60;91.00
53534;DHT22;39421;53.204;6.568;2022-09-13T13:37:02;25.40;90.80
53534;DHT22;39421;53.204;6.568;2022-09-13T13:46:51;25.20;91.20
53534;DHT22;39421;53.204;6.568;2022-09-13T13:57:36;25.40;90.80
53534;DHT22;39421;53.204;6.568;2022-09-13T14:00:19;25.40;90.20
53534;DHT22;39421;53.204;6.568;2022-09-13T14:05:40;25.30;90.70
53534;DHT22;39421;53.204;6.568;2022-09-13T14:08:43;25.30;90.90
53534;DHT22;39421;53.204;6.568;2022-09-13T14:11:21;25.20;91.10
53534;DHT22;39421;53.204;6.568;2022-09-13T14:14:21;25.10;91.00
53534;DHT22;39421;53.204;6.568;2022-09-13T14:19:51;24.80;91.40
53534;DHT22;39421;53.204;6.568;2022-09-13T14:22:24;24.80;91.40
53534;DHT22;39421;53.204;6.568;2022-09-13T14:24:56;24.70;91.80
53534;DHT22;39421;53.204;6.568;2022-09-13T14:27:31;24.70;91.70
53534;DHT22;39421;53.204;6.568;2022-09-13T14:30:48;24.80;91.40
53534;DHT22;39421;53.204;6.568;2022-09-13T14:32:54;24.80;91.50
53534;DHT22;39421;53.204;6.568;2022-09-13T14:35:32;24.90;91.40
53534;DHT22;39421;53.204;6.568;2022-09-13T14:38:21;25.00;91.20
53534;DHT22;39421;53.204;6.568;2022-09-13T14:40:52;24.90;91.10
53534;DHT22;39421;53.204;6.568;2022-09-13T14:43:24;24.90;91.10
53534;DHT22;39421;53.204;6.568;2022-09-13T14:46:05;24.80;91.10
53534;DHT22;39421;53.204;6.568;2022-09-13T14:48:35;24.70;91.20
53534;DHT22;39421;53.204;6.568;2022-09-13T14:53:39;24.50;90.80
53534;DHT22;39421;53.204;6.568;2022-09-13T14:56:13;24.40;91.00
53534;DHT22;39421;53.204;6.568;2022-09-13T14:58:45;24.30;90.80
53534;DHT22;39421;53.204;6.568;2022-09-13T15:01:15;24.20;90.80
53534;DHT22;39421;53.204;6.568;2022-09-13T15:03:46;24.20;90.80
53534;DHT22;39421;53.204;6.568;2022-09-13T15:06:31;24.10;90.60
53534;DHT22;39421;53.204;6.568;2022-09-13T15:16:57;24.20;90.90
53534;DHT22;39421;53.204;6.568;2022-09-13T15:19:38;24.30;91.00
53534;DHT22;39421;53.204;6.568;2022-09-13T15:22:20;24.40;91.10
53534;DHT22;39421;53.204;6.568;2022-09-13T15:24:54;24.30;91.00
53534;DHT22;39421;53.204;6.568;2022-09-13T15:27:24;24.20;91.80
53534;DHT22;39421;53.204;6.568;2022-09-13T15:34:56;24.00;91.60
53534;DHT22;39421;53.204;6.568;2022-09-13T15:37:35;24.00;91.40
53534;DHT22;39421;53.204;6.568;2022-09-13T15:42:39;23.80;91.60
53534;DHT22;39421;53.204;6.568;2022-09-13T15:45:04;23.80;91.50
53534;DHT22;39421;53.204;6.568;2022-09-13T15:47:31;23.80;91.90
53534;DHT22;39421;53.204;6.568;2022-09-13T15:49:57;23.80;92.00
53534;DHT22;39421;53.204;6.568;2022-09-13T15:52:23;23.80;92.00
53534;DHT22;39421;53.204;6.568;2022-09-13T15:54:50;23.80;91.30
53534;DHT22;39421;53.204;6.568;2022-09-13T15:57:18;23.70;91.70
53534;DHT22;39421;53.204;6.568;2022-09-13T15:59:45;23.70;92.20
53534;DHT22;39421;53.204;6.568;2022-09-13T16:02:23;23.70;91.80
53534;DHT22;39421;53.204;6.568;2022-09-13T16:04:50;23.70;91.70
53534;DHT22;39421;53.204;6.568;2022-09-13T16:07:16;23.80;92.10
53534;DHT22;39421;53.204;6.568;2022-09-13T16:09:43;23.80;92.10
53534;DHT22;39421;53.204;6.568;2022-09-13T16:12:09;23.80;91.60
53534;DHT22;39421;53.204;6.568;2022-09-13T16:14:35;23.60;91.80
53534;DHT22;39421;53.204;6.568;2022-09-13T16:17:05;23.50;91.60
53534;DHT22;39421;53.204;6.568;2022-09-13T16:19:31;23.50;92.40
53534;DHT22;39421;53.204;6.568;2022-09-13T16:21:57;23.40;91.70
53534;DHT22;39421;53.204;6.568;2022-09-13T16:24:22;23.40;92.20
53534;DHT22;39421;53.204;6.568;2022-09-13T16:26:48;23.30;92.20
53534;DHT22;39421;53.204;6.568;2022-09-13T16:29:14;23.40;92.10
53534;DHT22;39421;53.204;6.568;2022-09-13T16:31:41;23.40;92.20
53534;DHT22;39421;53.204;6.568;2022-09-13T16:34:07;23.30;92.10
53534;DHT22;39421;53.204;6.568;2022-09-13T16:36:33;23.10;92.30
53534;DHT22;39421;53.204;6.568;2022-09-13T16:38:59;23.00;92.60
53534;DHT22;39421;53.204;6.568;2022-09-13T16:41:25;22.90;92.90
53534;DHT22;39421;53.204;6.568;2022-09-13T16:43:53;22.80;93.20
53534;DHT22;39421;53.204;6.568;2022-09-13T16:46:19;22.80;93.60
53534;DHT22;39421;53.204;6.568;2022-09-13T16:48:45;22.80;94.00
53534;DHT22;39421;53.204;6.568;2022-09-13T16:51:18;22.70;94.10
53534;DHT22;39421;53.204;6.568;2022-09-13T16:53:44;22.70;94.30
53534;DHT22;39421;53.204;6.568;2022-09-13T16:56:15;22.50;94.50
53534;DHT22;39421;53.204;6.568;2022-09-13T16:58:43;22.40;94.60
53534;DHT22;39421;53.204;6.568;2022-09-13T17:01:12;22.40;94.90
53534;DHT22;39421;53.204;6.568;2022-09-13T17:03:39;22.30;94.90
53534;DHT22;39421;53.204;6.568;2022-09-13T17:06:07;22.30;94.80
53534;DHT22;39421;53.204;6.568;2022-09-13T17:08:36;22.30;94.50
53534;DHT22;39421;53.204;6.568;2022-09-13T17:11:10;22.20;94.80
53534;DHT22;39421;53.204;6.568;2022-09-13T17:13:37;22.20;94.60
53534;DHT22;39421;53.204;6.568;2022-09-13T17:16:04;22.20;94.80
53534;DHT22;39421;53.204;6.568;2022-09-13T17:18:31;22.20;94.50
53534;DHT22;39421;53.204;6.568;2022-09-13T17:20:58;22.10;94.60
53534;DHT22;39421;53.204;6.568;2022-09-13T17:23:24;22.10;94.60
53534;DHT22;39421;53.204;6.568;2022-09-13T17:25:50;22.10;94.60
53534;DHT22;39421;53.204;6.568;2022-09-13T17:28:17;22.20;94.80
53534;DHT22;39421;53.204;6.568;2022-09-13T17:30:45;22.20;94.60
53534;DHT22;39421;53.204;6.568;2022-09-13T17:33:11;22.30;94.60
53534;DHT22;39421;53.204;6.568;2022-09-13T17:35:37;22.20;94.70
53534;DHT22;39421;53.204;6.568;2022-09-13T17:38:04;22.20;94.70
53534;DHT22;39421;53.204;6.568;2022-09-13T17:40:31;22.20;94.80
53534;DHT22;39421;53.204;6.568;2022-09-13T17:42:57;22.20;94.90
53534;DHT22;39421;53.204;6.568;2022-09-13T17:45:24;22.20;95.10
53534;DHT22;39421;53.204;6.568;2022-09-13T17:47:53;22.20;94.90
53534;DHT22;39421;53.204;6.568;2022-09-13T17:50:20;22.20;94.80
53534;DHT22;39421;53.204;6.568;2022-09-13T17:52:45;22.30;94.70
53534;DHT22;39421;53.204;6.568;2022-09-13T17:55:11;22.20;94.70
53534;DHT22;39421;53.204;6.568;2022-09-13T17:57:37;22.20;94.60
53534;DHT22;39421;53.204;6.568;2022-09-13T18:00:04;22.20;94.70
53534;DHT22;39421;53.204;6.568;2022-09-13T18:02:33;22.20;94.50
53534;DHT22;39421;53.204;6.568;2022-09-13T18:04:59;22.20;94.80
53534;DHT22;39421;53.204;6.568;2022-09-13T18:07:24;22.20;94.80
53534;DHT22;39421;53.204;6.568;2022-09-13T18:09:50;22.20;94.80
53534;DHT22;39421;53.204;6.568;2022-09-13T18:12:16;22.20;94.90
53534;DHT22;39421;53.204;6.568;2022-09-13T18:14:41;22.20;94.90
53534;DHT22;39421;53.204;6.568;2022-09-13T18:17:07;22.20;94.70
53534;DHT22;39421;53.204;6.568;2022-09-13T18:19:38;22.10;94.70
53534;DHT22;39421;53.204;6.568;2022-09-13T18:22:05;22.10;94.90
53534;DHT22;39421;53.204;6.568;2022-09-13T18:24:31;22.00;94.90
53534;DHT22;39421;53.204;6.568;2022-09-13T18:26:58;22.10;94.90
53534;DHT22;39421;53.204;6.568;2022-09-13T18:29:24;22.10;94.80
53534;DHT22;39421;53.204;6.568;2022-09-13T18:31:51;22.10;94.80
53534;DHT22;39421;53.204;6.568;2022-09-13T18:34:16;22.00;94.80
53534;DHT22;39421;53.204;6.568;2022-09-13T18:36:42;22.00;94.90
53534;DHT22;39421;53.204;6.568;2022-09-13T18:39:17;22.00;94.90
53534;DHT22;39421;53.204;6.568;2022-09-13T18:41:44;22.00;94.90
53534;DHT22;39421;53.204;6.568;2022-09-13T18:44:12;22.00;95.00
53534;DHT22;39421;53.204;6.568;2022-09-13T18:46:38;22.00;94.90
53534;DHT22;39421;53.204;6.568;2022-09-13T18:49:05;22.00;95.00
53534;DHT22;39421;53.204;6.568;2022-09-13T18:51:39;21.90;94.90
53534;DHT22;39421;53.204;6.568;2022-09-13T18:54:07;21.80;95.00
53534;DHT22;39421;53.204;6.568;2022-09-13T18:56:34;21.70;95.40
53534;DHT22;39421;53.204;6.568;2022-09-13T18:59:02;21.60;95.50
53534;DHT22;39421;53.204;6.568;2022-09-13T19:01:31;21.60;95.70
53534;DHT22;39421;53.204;6.568;2022-09-13T19:03:58;21.60;95.60
53534;DHT22;39421;53.204;6.568;2022-09-13T19:06:39;21.60;95.40
53534;DHT22;39421;53.204;6.568;2022-09-13T19:09:07;21.60;95.50
53534;DHT22;39421;53.204;6.568;2022-09-13T19:11:39;21.60;95.50
53534;DHT22;39421;53.204;6.568;2022-09-13T19:14:06;21.40;95.50
53534;DHT22;39421;53.204;6.568;2022-09-13T19:16:33;21.40;95.50
53534;DHT22;39421;53.204;6.568;2022-09-13T19:18:59;21.30;95.80